Time;durP1;ratioP1;P1;durP2;ratioP2;P2;SDS_P1;SDS_P2;PMS_P1;PMS_P2;Temp;Humidity;BMP_temperature;BMP_pressure;BME280_temperature;BME280_humidity;BME280_pressure;Samples;Min_cycle;Max_cycle;Signal;HPM_P1;HPM_P2
2021/10/12 00:01:40;;;;;;;19.73;4.53;;;20.90;83.10;;;;;;6336239;22;19998;-74
2021/10/12 00:04:06;;;;;;;13.32;4.80;;;20.80;83.40;;;;;;6334595;22;20330;-73
2021/10/12 00:06:33;;;;;;;15.73;3.92;;;20.90;83.30;;;;;;6336219;22;19998;-73
2021/10/12 00:09:00;;;;;;;22.70;4.05;;;20.90;83.10;;;;;;6334409;22;20006;-72
2021/10/12 00:11:26;;;;;;;15.38;4.00;;;20.90;83.10;;;;;;6335952;22;20025;-75
2021/10/12 00:13:54;;;;;;;14.98;4.13;;;20.80;82.80;;;;;;6334247;22;20030;-72
2021/10/12 00:16:20;;;;;;;16.08;3.97;;;20.80;82.80;;;;;;6334542;22;20447;-72
2021/10/12 00:18:47;;;;;;;12.27;3.75;;;20.80;82.70;;;;;;6336317;22;20067;-74
2021/10/12 00:21:14;;;;;;;15.27;3.85;;;20.80;82.80;;;;;;6334484;22;19999;-75
2021/10/12 00:23:40;;;;;;;6.78;3.17;;;20.80;82.90;;;;;;6335689;22;19995;-74
2021/10/12 00:26:07;;;;;;;15.63;4.07;;;20.80;82.80;;;;;;6334369;22;20370;-74
2021/10/12 00:28:34;;;;;;;18.70;4.70;;;20.70;82.80;;;;;;6335428;22;20077;-74
2021/10/12 00:31:02;;;;;;;14.98;3.47;;;20.70;82.90;;;;;;6334485;22;20295;-75
2021/10/12 00:33:29;;;;;;;14.88;3.92;;;20.70;82.90;;;;;;6335533;22;20307;-74
2021/10/12 00:35:56;;;;;;;17.23;3.55;;;20.60;82.90;;;;;;6335423;22;19995;-74
2021/10/12 00:38:23;;;;;;;20.38;5.72;;;20.60;83.10;;;;;;6334545;22;19995;-74
2021/10/12 00:40:50;;;;;;;16.98;4.70;;;20.60;83.10;;;;;;6307922;22;20076;-74
2021/10/12 00:43:17;;;;;;;17.17;5.18;;;20.60;83.20;;;;;;6334093;22;20026;-74
2021/10/12 00:45:44;;;;;;;15.60;5.32;;;20.60;83.20;;;;;;6335394;22;20002;-74
2021/10/12 00:48:10;;;;;;;18.23;4.50;;;20.60;83.40;;;;;;6334262;22;19999;-74
2021/10/12 00:50:39;;;;;;;11.40;4.22;;;20.60;83.20;;;;;;6335436;22;20060;-74
2021/10/12 00:53:06;;;;;;;15.50;4.13;;;20.60;83.10;;;;;;6334889;22;19998;-74
2021/10/12 00:55:33;;;;;;;12.43;4.10;;;20.60;83.20;;;;;;6334142;22;20379;-75
2021/10/12 00:58:01;;;;;;;9.57;3.13;;;20.60;83.20;;;;;;6335718;22;20436;-74
2021/10/12 01:00:28;;;;;;;12.30;3.17;;;20.60;83.10;;;;;;6334477;22;20006;-74
2021/10/12 01:02:54;;;;;;;15.38;4.45;;;20.50;83.00;;;;;;6308409;22;20007;-74
2021/10/12 01:05:21;;;;;;;16.30;4.45;;;20.60;83.10;;;;;;6334514;22;19999;-74
2021/10/12 01:07:48;;;;;;;14.55;3.60;;;20.60;83.20;;;;;;6336152;22;20029;-74
2021/10/12 01:10:15;;;;;;;18.20;4.20;;;20.60;83.10;;;;;;6334754;22;20019;-74
2021/10/12 01:12:41;;;;;;;14.90;3.47;;;20.50;82.80;;;;;;6335656;22;20006;-74
2021/10/12 01:15:09;;;;;;;22.98;3.97;;;20.50;83.00;;;;;;6334874;22;19999;-74
2021/10/12 01:17:36;;;;;;;14.15;4.05;;;20.50;83.10;;;;;;6334130;22;20590;-74
2021/10/12 01:20:09;;;;;;;13.27;3.15;;;20.50;82.90;;;;;;6335317;22;19999;-73
2021/10/12 01:22:42;;;;;;;15.07;3.72;;;20.40;83.00;;;;;;6334218;22;20034;-74
2021/10/12 01:25:10;;;;;;;11.85;3.88;;;20.40;83.20;;;;;;6335648;22;20078;-75
2021/10/12 01:27:37;;;;;;;13.05;3.30;;;20.40;83.20;;;;;;6334136;22;20379;-74
2021/10/12 01:30:06;;;;;;;12.68;2.88;;;20.40;83.10;;;;;;6335128;22;20034;-74
2021/10/12 01:32:36;;;;;;;13.45;4.07;;;20.40;83.00;;;;;;6335430;22;19998;-74
2021/10/12 01:35:03;;;;;;;17.10;4.13;;;20.40;83.10;;;;;;6333582;22;19991;-74
2021/10/12 01:37:30;;;;;;;16.75;3.45;;;20.30;83.20;;;;;;6335283;22;20005;-75
2021/10/12 01:39:58;;;;;;;18.45;4.97;;;20.30;83.10;;;;;;6334371;22;19992;-75
2021/10/12 01:42:25;;;;;;;14.02;3.45;;;20.30;83.10;;;;;;6335223;22;20009;-75
2021/10/12 01:44:53;;;;;;;12.93;3.55;;;20.30;83.00;;;;;;6306347;22;20624;-75
2021/10/12 01:47:20;;;;;;;14.07;3.95;;;20.30;82.90;;;;;;6334570;22;20022;-75
2021/10/12 01:49:47;;;;;;;15.45;3.50;;;20.30;83.00;;;;;;6334846;22;20338;-75
2021/10/12 01:52:15;;;;;;;11.15;3.40;;;20.30;83.60;;;;;;6306248;22;20034;-73
2021/10/12 01:54:41;;;;;;;17.05;3.15;;;20.20;82.90;;;;;;6306929;22;20452;-75
2021/10/12 01:57:08;;;;;;;10.95;3.08;;;20.20;82.70;;;;;;6333632;22;20002;-74
2021/10/12 01:59:34;;;;;;;14.82;4.40;;;20.20;82.90;;;;;;6335376;22;20009;-73
2021/10/12 02:02:02;;;;;;;10.77;2.97;;;20.10;83.60;;;;;;6333864;22;19999;-74
2021/10/12 02:04:29;;;;;;;9.68;2.75;;;20.10;83.30;;;;;;6307221;22;20052;-74
2021/10/12 02:06:56;;;;;;;18.55;3.85;;;20.10;83.40;;;;;;6334458;22;19999;-72
2021/10/12 02:09:22;;;;;;;11.48;3.65;;;20.10;83.50;;;;;;6333745;22;20006;-75
2021/10/12 02:11:49;;;;;;;14.52;3.45;;;20.10;83.30;;;;;;6335077;22;20010;-74
2021/10/12 02:14:15;;;;;;;11.48;2.97;;;20.10;83.40;;;;;;6332468;22;19998;-74
2021/10/12 02:16:42;;;;;;;12.13;5.53;;;20.10;83.30;;;;;;6334774;22;20423;-72
2021/10/12 02:19:09;;;;;;;23.42;4.90;;;20.10;83.50;;;;;;6333588;22;19999;-74
2021/10/12 02:21:35;;;;;;;14.55;4.15;;;20.00;83.60;;;;;;6335655;22;20013;-74
2021/10/12 02:24:02;;;;;;;13.73;4.43;;;20.10;83.50;;;;;;6306572;22;20327;-72
2021/10/12 02:26:52;;;;;;;25.90;4.25;;;20.00;83.40;;;;;;6334094;22;20449;-74
2021/10/12 02:29:18;;;;;;;7.55;3.20;;;20.00;83.40;;;;;;6283050;22;20057;-74
2021/10/12 02:31:45;;;;;;;15.27;4.10;;;20.00;83.40;;;;;;6334088;22;19995;-72
2021/10/12 02:34:11;;;;;;;14.25;5.25;;;19.90;83.40;;;;;;6334966;22;20063;-73
2021/10/12 02:36:38;;;;;;;14.65;5.55;;;19.90;83.50;;;;;;6335508;22;19998;-74
2021/10/12 02:39:04;;;;;;;14.48;4.50;;;19.90;83.60;;;;;;6336991;22;20002;-74
2021/10/12 02:41:31;;;;;;;9.05;4.13;;;19.90;83.50;;;;;;6335283;22;19995;-74
2021/10/12 02:43:57;;;;;;;14.32;3.88;;;19.90;83.40;;;;;;6336680;22;20007;-74
2021/10/12 02:46:24;;;;;;;17.73;4.90;;;19.90;83.60;;;;;;6336125;22;20002;-74
2021/10/12 02:48:50;;;;;;;14.35;4.20;;;19.90;83.40;;;;;;6336450;22;20010;-74
2021/10/12 02:51:17;;;;;;;12.43;4.10;;;19.90;83.40;;;;;;6337114;22;20021;-75
2021/10/12 02:53:43;;;;;;;8.23;2.63;;;19.90;83.40;;;;;;6335202;22;20006;-74
2021/10/12 02:56:10;;;;;;;8.55;2.83;;;19.90;83.40;;;;;;6336555;22;20096;-73
2021/10/12 02:58:37;;;;;;;14.38;3.25;;;19.90;83.30;;;;;;6335106;22;20005;-75
2021/10/12 03:01:03;;;;;;;11.02;3.22;;;19.90;83.50;;;;;;6336523;22;20041;-75
2021/10/12 03:03:30;;;;;;;11.85;3.17;;;19.90;83.40;;;;;;6335618;22;19995;-74
2021/10/12 03:05:56;;;;;;;10.43;3.35;;;19.90;83.30;;;;;;6336192;22;20002;-74
2021/10/12 03:08:22;;;;;;;13.18;4.43;;;19.90;83.50;;;;;;6335800;22;19995;-73
2021/10/12 03:10:49;;;;;;;16.55;5.55;;;19.90;83.40;;;;;;6335449;22;20318;-74
2021/10/12 03:13:15;;;;;;;12.10;3.40;;;19.90;83.30;;;;;;6336714;22;20026;-74
2021/10/12 03:15:43;;;;;;;12.20;4.15;;;19.90;83.40;;;;;;6335001;22;20499;-74
2021/10/12 03:18:10;;;;;;;17.10;3.28;;;19.90;83.30;;;;;;6336738;22;20006;-73
2021/10/12 03:20:36;;;;;;;10.75;5.15;;;19.90;83.40;;;;;;6335024;22;20002;-74
2021/10/12 03:23:03;;;;;;;12.70;4.15;;;19.90;83.20;;;;;;6335087;22;20029;-73
2021/10/12 03:25:29;;;;;;;12.55;2.92;;;19.90;83.20;;;;;;6335011;22;19998;-73
2021/10/12 03:27:56;;;;;;;9.55;3.30;;;19.90;83.30;;;;;;6335762;22;20011;-73
2021/10/12 03:30:22;;;;;;;8.90;3.20;;;19.80;83.20;;;;;;6335630;22;20033;-74
2021/10/12 03:32:49;;;;;;;15.40;5.60;;;19.80;83.30;;;;;;6334712;22;19995;-72
2021/10/12 03:35:18;;;;;;;36.83;25.20;;;19.80;83.50;;;;;;6336607;22;20010;-72
2021/10/12 03:37:45;;;;;;;22.77;13.32;;;19.80;83.40;;;;;;6334351;22;19995;-74
2021/10/12 03:40:12;;;;;;;10.57;4.30;;;19.90;83.20;;;;;;6335889;22;20517;-73
2021/10/12 03:42:38;;;;;;;12.73;2.90;;;19.90;82.80;;;;;;6333997;22;20006;-73
2021/10/12 03:45:05;;;;;;;9.48;3.13;;;19.80;82.90;;;;;;6334422;22;20081;-73
2021/10/12 03:47:31;;;;;;;7.70;2.50;;;19.80;82.80;;;;;;6333018;22;19995;-74
2021/10/12 03:49:58;;;;;;;11.73;3.25;;;19.80;82.70;;;;;;6331283;22;20035;-74
2021/10/12 03:52:24;;;;;;;10.00;3.70;;;19.80;82.70;;;;;;6333586;22;19995;-74
2021/10/12 03:54:51;;;;;;;11.52;3.00;;;19.80;83.40;;;;;;6304780;22;20006;-74
2021/10/12 03:57:18;;;;;;;7.25;2.55;;;19.70;82.80;;;;;;6307213;22;19999;-78
2021/10/12 03:59:44;;;;;;;14.90;3.17;;;19.80;83.00;;;;;;6334995;22;20006;-73
2021/10/12 04:02:11;;;;;;;30.02;20.15;;;19.80;82.80;;;;;;6336049;22;20070;-73
2021/10/12 08:18:58;;;;;;;12.43;2.35;;;22.20;68.60;;;;;;6140127;22;3347159;-71
2021/10/12 08:21:25;;;;;;;8.32;2.45;;;22.20;68.50;;;;;;6212066;23;20004;-71
2021/10/12 08:23:52;;;;;;;7.32;2.45;;;22.20;67.70;;;;;;6207862;23;19992;-73
2021/10/12 08:26:20;;;;;;;6.65;2.13;;;22.30;67.70;;;;;;6207433;23;20004;-70
2021/10/12 08:28:47;;;;;;;11.57;2.35;;;22.30;67.30;;;;;;6209917;23;20000;-70
2021/10/12 08:31:14;;;;;;;6.35;2.13;;;22.30;66.50;;;;;;6209960;23;20019;-70
2021/10/12 08:33:41;;;;;;;10.05;2.60;;;22.40;67.10;;;;;;6206981;23;20448;-70
2021/10/12 08:36:07;;;;;;;8.60;2.78;;;22.40;66.50;;;;;;6204837;23;19995;-69
2021/10/12 08:38:34;;;;;;;8.88;1.60;;;22.50;65.40;;;;;;6209291;23;20000;-72
2021/10/12 08:41:07;;;;;;;5.65;1.70;;;22.50;65.20;;;;;;6208452;23;20377;-70
2021/10/12 08:43:38;;;;;;;9.25;1.98;;;22.60;65.40;;;;;;6209939;23;20008;-69
2021/10/12 08:46:06;;;;;;;9.45;2.08;;;22.70;65.70;;;;;;6208137;23;20008;-72
2021/10/12 08:48:34;;;;;;;7.97;1.85;;;22.80;65.60;;;;;;6209666;23;20067;-69
2021/10/12 08:51:03;;;;;;;10.50;2.30;;;22.80;64.90;;;;;;6207713;23;20008;-71
2021/10/12 08:53:30;;;;;;;10.23;2.53;;;22.90;63.60;;;;;;6209435;23;20001;-70
2021/10/12 08:55:58;;;;;;;7.35;1.67;;;22.90;62.80;;;;;;6209299;23;20071;-69
2021/10/12 08:58:25;;;;;;;5.50;1.75;;;23.00;63.20;;;;;;6208163;23;20084;-71
2021/10/12 09:01:09;;;;;;;9.88;2.17;;;23.00;63.00;;;;;;6209314;23;20032;-70
2021/10/12 09:06:31;;;;;;;5.55;1.52;;;23.10;60.00;;;;;;6209930;23;20008;-71
2021/10/12 09:09:14;;;;;;;21.52;13.60;;;23.20;60.50;;;;;;6209106;23;20373;-72
2021/10/12 09:11:43;;;;;;;6.25;2.72;;;23.20;59.90;;;;;;6207349;23;20878;-69
2021/10/12 09:14:11;;;;;;;7.45;1.63;;;23.30;60.20;;;;;;6209639;23;19997;-71
2021/10/12 09:16:43;;;;;;;4.57;1.67;;;23.40;60.10;;;;;;6208205;23;20000;-71
2021/10/12 09:19:17;;;;;;;8.32;1.90;;;23.40;59.80;;;;;;6208333;23;20012;-71
2021/10/12 09:21:46;;;;;;;2.75;1.55;;;23.40;60.90;;;;;;6207742;23;20005;-71
2021/10/12 09:24:18;;;;;;;8.70;1.95;;;23.40;59.70;;;;;;6208904;23;20005;-72
2021/10/12 09:27:03;;;;;;;8.20;2.33;;;23.40;58.30;;;;;;6208734;23;20574;-71
2021/10/12 09:29:37;;;;;;;13.90;7.05;;;23.50;58.30;;;;;;6209471;23;20001;-69
2021/10/12 09:32:05;;;;;;;10.52;4.75;;;23.50;58.00;;;;;;6208872;23;20009;-72
2021/10/12 09:34:34;;;;;;;9.90;3.03;;;23.60;58.80;;;;;;6209221;23;20004;-70
2021/10/12 09:37:02;;;;;;;7.95;1.77;;;23.60;59.40;;;;;;6210143;23;20001;-70
2021/10/12 09:39:42;;;;;;;4.60;2.05;;;23.70;57.90;;;;;;6209759;23;20361;-71
2021/10/12 09:42:22;;;;;;;5.70;1.60;;;23.80;57.70;;;;;;6208947;23;20009;-69
2021/10/12 09:44:56;;;;;;;4.07;1.45;;;23.90;57.20;;;;;;6209903;23;20491;-70
2021/10/12 09:47:23;;;;;;;4.78;1.67;;;24.10;56.50;;;;;;6209188;23;20104;-73
2021/10/12 09:50:05;;;;;;;4.75;1.55;;;24.20;56.70;;;;;;6210894;23;19996;-70
2021/10/12 09:52:36;;;;;;;7.38;1.42;;;24.30;55.70;;;;;;6210262;23;20000;-70
2021/10/12 09:55:03;;;;;;;6.35;1.27;;;24.30;55.70;;;;;;6209766;23;20001;-69
2021/10/12 09:57:30;;;;;;;4.88;1.30;;;24.50;55.60;;;;;;6210921;23;20000;-70
2021/10/12 09:59:57;;;;;;;4.32;1.48;;;24.60;55.00;;;;;;6209651;23;20008;-70
2021/10/12 10:02:26;;;;;;;4.22;1.63;;;24.60;53.80;;;;;;6210545;23;20007;-70
2021/10/12 10:04:54;;;;;;;7.15;1.27;;;24.60;52.00;;;;;;6210374;23;20004;-70
2021/10/12 10:07:29;;;;;;;6.80;1.80;;;24.60;51.30;;;;;;6210243;23;20000;-70
2021/10/12 10:09:57;;;;;;;4.20;1.52;;;24.60;52.90;;;;;;6211661;23;20424;-71
2021/10/12 10:12:26;;;;;;;4.80;1.58;;;24.70;53.50;;;;;;6210129;23;20008;-69
2021/10/12 10:14:52;;;;;;;6.20;2.03;;;24.70;51.80;;;;;;6210572;23;20004;-71
2021/10/12 10:17:22;;;;;;;3.95;1.15;;;24.70;51.10;;;;;;6209662;23;20005;-70
2021/10/12 10:19:49;;;;;;;2.45;1.02;;;24.80;50.40;;;;;;6210490;23;20452;-71
2021/10/12 10:22:41;;;;;;;3.80;1.55;;;24.90;49.70;;;;;;6209572;23;20035;-70
2021/10/12 10:25:30;;;;;;;4.47;1.27;;;25.00;48.10;;;;;;6197119;23;20028;-70
2021/10/12 10:28:18;;;;;;;5.28;1.10;;;25.10;48.40;;;;;;6210334;23;20008;-70
2021/10/12 10:30:49;;;;;;;6.22;1.33;;;25.20;48.70;;;;;;6209017;23;20062;-69
2021/10/12 10:33:26;;;;;;;26.80;21.13;;;25.30;48.40;;;;;;6202376;23;20013;-69
2021/10/12 10:36:05;;;;;;;6.38;4.05;;;25.20;45.70;;;;;;6208157;23;20004;-71
2021/10/12 10:38:52;;;;;;;5.13;1.80;;;25.30;47.10;;;;;;6205905;23;20083;-71
2021/10/12 10:41:19;;;;;;;5.55;1.10;;;25.30;48.20;;;;;;6208869;23;20012;-71
2021/10/12 10:43:57;;;;;;;7.90;1.60;;;25.30;48.10;;;;;;6208234;23;20151;-71
2021/10/12 10:46:35;;;;;;;5.78;1.30;;;25.30;48.30;;;;;;6208539;23;20431;-71
2021/10/12 10:49:23;;;;;;;2.80;1.00;;;25.30;49.60;;;;;;6208897;23;20001;-70
2021/10/12 10:52:04;;;;;;;6.95;1.95;;;25.30;50.20;;;;;;6207743;23;20000;-70
2021/10/12 10:54:43;;;;;;;5.55;1.65;;;25.30;50.30;;;;;;6207438;23;20372;-69
2021/10/12 10:57:20;;;;;;;5.80;1.55;;;25.20;50.30;;;;;;6208510;23;20079;-72
2021/10/12 11:00:06;;;;;;;4.07;1.77;;;25.20;50.00;;;;;;6209479;23;20013;-71
2021/10/12 11:02:33;;;;;;;6.43;1.38;;;25.20;51.00;;;;;;6209906;23;19997;-71
2021/10/12 11:05:00;;;;;;;3.97;1.58;;;25.20;51.90;;;;;;6210155;23;20004;-69
2021/10/12 11:07:28;;;;;;;9.20;1.85;;;25.20;51.70;;;;;;6211245;23;20004;-71
2021/10/12 11:09:56;;;;;;;7.30;1.95;;;25.20;52.20;;;;;;6212019;23;20004;-71
2021/10/12 11:12:27;;;;;;;6.75;2.50;;;25.20;52.20;;;;;;6208361;23;19999;-70
2021/10/12 11:15:03;;;;;;;7.38;1.73;;;25.20;52.30;;;;;;6202019;23;20523;-71
2021/10/12 11:17:30;;;;;;;7.95;1.42;;;25.30;52.30;;;;;;6207143;23;20004;-72
2021/10/12 11:19:58;;;;;;;6.43;1.52;;;25.40;52.20;;;;;;6210544;23;20368;-70
2021/10/12 11:22:26;;;;;;;6.55;1.95;;;25.50;52.50;;;;;;6209045;23;20000;-70
2021/10/12 11:24:54;;;;;;;23.13;19.45;;;25.70;52.60;;;;;;6210083;23;20024;-71
2021/10/12 11:27:21;;;;;;;8.43;3.33;;;25.80;52.70;;;;;;6211021;23;20035;-71
2021/10/12 11:30:09;;;;;;;8.13;2.28;;;25.90;52.10;;;;;;6211052;23;20115;-73
2021/10/12 11:32:36;;;;;;;8.93;1.83;;;26.00;52.20;;;;;;6211595;23;20008;-71
2021/10/12 11:35:20;;;;;;;6.35;1.85;;;26.00;52.00;;;;;;6209270;23;20012;-72
2021/10/12 11:37:56;;;;;;;3.33;1.47;;;26.10;52.20;;;;;;6211327;23;20007;-72
2021/10/12 11:40:25;;;;;;;5.38;1.75;;;26.20;51.90;;;;;;6210134;23;20262;-71
2021/10/12 11:42:53;;;;;;;4.10;1.40;;;26.10;51.30;;;;;;6210523;23;20004;-73
2021/10/12 11:45:20;;;;;;;10.82;3.15;;;26.10;51.40;;;;;;6211267;23;20007;-73
2021/10/12 11:47:47;;;;;;;6.97;2.50;;;26.20;51.50;;;;;;6208985;23;20331;-72
2021/10/12 11:50:15;;;;;;;7.32;1.85;;;26.10;51.70;;;;;;6212340;23;20004;-73
2021/10/12 11:52:47;;;;;;;8.45;3.10;;;26.10;51.70;;;;;;6210545;23;20005;-72
2021/10/12 11:55:14;;;;;;;5.97;1.67;;;26.10;51.50;;;;;;6212086;23;20371;-72
2021/10/12 11:57:46;;;;;;;8.80;2.30;;;26.10;51.60;;;;;;6211121;23;20084;-73
2021/10/12 12:00:18;;;;;;;6.10;1.73;;;26.10;51.70;;;;;;6211031;23;20075;-72
2021/10/12 12:02:44;;;;;;;4.45;2.15;;;26.00;51.40;;;;;;6211858;23;20328;-72
2021/10/12 14:33:06;;;;;;;6.63;2.08;;;25.20;53.20;;;;;;5068600;27;20416;-69
2021/10/12 14:35:33;;;;;;;19.65;3.20;;;25.30;52.80;;;;;;5062903;28;20021;-73
2021/10/12 14:37:59;;;;;;;11.32;2.30;;;25.30;52.80;;;;;;5059573;28;20047;-69
2021/10/12 14:40:26;;;;;;;5.68;1.70;;;25.30;52.80;;;;;;5062007;28;20025;-72
2021/10/12 14:42:53;;;;;;;9.05;1.80;;;25.20;52.90;;;;;;5057333;28;20021;-72
2021/10/12 14:45:21;;;;;;;4.72;1.77;;;25.20;53.20;;;;;;5063729;28;20032;-70
2021/10/12 14:47:48;;;;;;;6.15;2.60;;;25.10;53.50;;;;;;5062561;28;20032;-67
2021/10/12 14:50:17;;;;;;;6.32;2.30;;;25.00;53.60;;;;;;5061888;28;20028;-68
2021/10/12 14:52:46;;;;;;;4.78;2.92;;;24.90;54.00;;;;;;5059534;28;20025;-71
2021/10/12 14:55:15;;;;;;;5.28;2.53;;;24.90;54.80;;;;;;5061584;28;20028;-75
2021/10/12 14:57:42;;;;;;;9.30;3.60;;;24.80;55.10;;;;;;5063231;28;20091;-76
2021/10/12 15:00:10;;;;;;;7.63;4.03;;;24.70;55.50;;;;;;5061541;28;20020;-74
2021/10/12 15:02:37;;;;;;;5.95;3.10;;;24.70;55.30;;;;;;5063872;28;20078;-74
2021/10/12 15:05:06;;;;;;;11.80;4.53;;;24.70;55.90;;;;;;5057626;28;20012;-72
2021/10/12 15:07:41;;;;;;;5.30;2.17;;;24.70;55.90;;;;;;5061336;28;20031;-74
2021/10/12 15:10:12;;;;;;;4.68;1.67;;;24.60;56.10;;;;;;5060151;28;20372;-71
2021/10/12 15:12:43;;;;;;;10.65;3.28;;;24.60;55.90;;;;;;5061364;28;20731;-72
2021/10/12 15:15:11;;;;;;;2.92;1.55;;;24.60;56.00;;;;;;5062708;28;20035;-72
2021/10/12 15:17:39;;;;;;;5.70;1.45;;;24.60;55.60;;;;;;5061631;28;20025;-72
2021/10/12 15:20:08;;;;;;;2.38;1.63;;;24.60;55.60;;;;;;5060597;28;20025;-71
2021/10/12 15:22:39;;;;;;;7.90;1.60;;;24.50;55.00;;;;;;5061990;28;20383;-70
2021/10/12 15:25:08;;;;;;;5.97;1.58;;;24.50;55.10;;;;;;5062333;28;20017;-72
2021/10/12 15:27:36;;;;;;;4.10;1.23;;;24.50;55.30;;;;;;5057115;28;20013;-66
2021/10/12 15:30:05;;;;;;;5.65;1.48;;;24.50;55.60;;;;;;5062811;28;20647;-68
2021/10/12 15:32:32;;;;;;;4.28;1.63;;;24.50;55.80;;;;;;5070091;28;20040;-72
2021/10/12 15:34:59;;;;;;;3.63;2.28;;;24.50;55.80;;;;;;5069095;28;20016;-73
2021/10/12 15:37:25;;;;;;;4.82;1.83;;;24.40;55.70;;;;;;5071108;28;20100;-71
2021/10/12 15:39:52;;;;;;;15.65;11.30;;;24.30;56.10;;;;;;5069365;28;20025;-69
2021/10/12 15:42:18;;;;;;;7.97;3.70;;;24.30;56.70;;;;;;5069808;28;20032;-72
2021/10/12 15:44:49;;;;;;;6.63;2.00;;;24.30;56.40;;;;;;5058461;28;20066;-72
2021/10/12 15:47:17;;;;;;;4.78;1.92;;;24.30;56.90;;;;;;5057279;28;20079;-70
2021/10/12 15:49:45;;;;;;;6.10;1.60;;;24.30;57.30;;;;;;5068019;28;20024;-74
2021/10/12 15:52:13;;;;;;;7.47;2.35;;;24.30;57.30;;;;;;5063636;28;20542;-71
2021/10/12 15:54:43;;;;;;;5.55;1.55;;;24.20;57.90;;;;;;5067002;28;20432;-72
2021/10/12 15:57:10;;;;;;;2.80;1.92;;;24.10;58.30;;;;;;5063418;28;20060;-71
2021/10/12 15:59:37;;;;;;;2.63;2.38;;;24.10;58.90;;;;;;5067353;28;20063;-72
2021/10/12 16:02:05;;;;;;;4.70;1.48;;;24.00;58.80;;;;;;5060794;28;20028;-70
2021/10/12 16:04:33;;;;;;;3.17;1.25;;;24.00;59.40;;;;;;5064287;28;20025;-79
2021/10/12 16:06:59;;;;;;;2.00;1.17;;;23.90;59.50;;;;;;5064181;28;20363;-71
2021/10/12 16:09:26;;;;;;;2.50;1.20;;;23.80;59.40;;;;;;5066345;28;20107;-74
2021/10/12 16:11:56;;;;;;;7.90;2.25;;;23.70;59.70;;;;;;5067064;28;20020;-70
2021/10/12 16:14:23;;;;;;;3.47;1.08;;;23.70;60.10;;;;;;5063379;28;20031;-75
2021/10/12 16:22:11;;;;;;;2.85;1.58;;;23.50;61.10;;;;;;5057190;28;20084;-79
2021/10/12 16:24:38;;;;;;;6.82;1.77;;;23.50;61.50;;;;;;5068696;28;20021;-77
2021/10/12 16:27:05;;;;;;;3.25;1.10;;;23.40;62.00;;;;;;5066565;28;20033;-77
2021/10/12 16:29:33;;;;;;;42.50;34.53;;;23.40;62.00;;;;;;5067171;28;20454;-77
2021/10/12 16:32:02;;;;;;;14.07;12.20;;;23.40;62.30;;;;;;5066518;28;20049;-73
2021/10/12 16:34:30;;;;;;;4.88;1.92;;;23.40;62.60;;;;;;5070001;28;20029;-73
2021/10/12 16:37:00;;;;;;;5.03;2.25;;;23.30;62.90;;;;;;5065625;28;20028;-73
2021/10/12 16:39:33;;;;;;;2.70;0.90;;;23.20;63.10;;;;;;5066681;28;20413;-77
2021/10/12 16:42:02;;;;;;;8.18;1.95;;;23.20;63.40;;;;;;5065592;28;20056;-73
2021/10/12 16:44:30;;;;;;;2.08;1.10;;;23.10;63.70;;;;;;5066262;28;20376;-74
2021/10/12 16:46:58;;;;;;;5.80;1.85;;;23.10;64.10;;;;;;5066896;28;20025;-77
2021/10/12 16:49:27;;;;;;;4.95;1.70;;;23.00;64.40;;;;;;5064509;28;20468;-76
2021/10/12 16:51:55;;;;;;;34.15;29.15;;;23.00;64.70;;;;;;5066090;28;20063;-76
2021/10/12 16:54:24;;;;;;;8.38;4.30;;;23.00;65.10;;;;;;5065561;28;20039;-71
2021/10/12 16:56:50;;;;;;;4.22;2.08;;;23.00;65.30;;;;;;5066968;28;20019;-78
2021/10/12 16:59:18;;;;;;;9.50;6.03;;;23.00;65.60;;;;;;5065038;28;20019;-77
2021/10/12 17:01:51;;;;;;;6.60;1.80;;;23.00;65.80;;;;;;5050770;28;20530;-76
2021/10/12 17:04:18;;;;;;;1.65;1.02;;;22.90;66.00;;;;;;5063290;28;20029;-76
2021/10/12 17:06:45;;;;;;;2.75;1.25;;;22.90;66.30;;;;;;5060957;28;20028;-76
2021/10/12 17:09:15;;;;;;;4.47;1.40;;;22.80;66.50;;;;;;5063153;28;20056;-79
2021/10/12 17:11:43;;;;;;;5.82;1.60;;;22.80;66.70;;;;;;5063588;28;20032;-76
2021/10/12 17:14:11;;;;;;;4.93;1.95;;;22.70;66.80;;;;;;5062984;28;20025;-76
2021/10/12 17:16:38;;;;;;;2.28;1.60;;;22.70;67.10;;;;;;5064788;28;20017;-77
2021/10/12 17:19:06;;;;;;;6.97;1.70;;;22.60;67.40;;;;;;5063939;28;20017;-75
2021/10/12 17:21:33;;;;;;;3.47;1.25;;;22.60;67.50;;;;;;5065089;28;20041;-78
2021/10/12 17:23:59;;;;;;;6.32;1.70;;;22.60;67.50;;;;;;5093847;28;20052;-74
2021/10/12 17:26:27;;;;;;;68.43;57.33;;;22.50;67.70;;;;;;5065028;28;20034;-79
2021/10/12 17:32:28;;;;;;;2.08;1.85;;;22.40;68.50;;;;;;5031910;28;20051;-78
2021/10/12 17:34:56;;;;;;;2.35;1.70;;;22.40;68.90;;;;;;5063330;28;20028;-76
2021/10/12 17:37:29;;;;;;;3.90;1.48;;;22.50;69.20;;;;;;5064068;28;20035;-76
2021/10/12 17:39:57;;;;;;;9.57;2.47;;;22.40;69.30;;;;;;5065445;28;20024;-76
2021/10/12 17:42:25;;;;;;;6.85;1.70;;;22.40;69.60;;;;;;5061848;28;20398;-77
2021/10/12 17:44:52;;;;;;;6.13;1.90;;;22.40;69.70;;;;;;5063693;28;20032;-77
2021/10/12 17:47:18;;;;;;;4.97;2.75;;;22.30;70.50;;;;;;5059052;28;20052;-77
2021/10/12 17:49:45;;;;;;;8.70;2.25;;;22.30;71.20;;;;;;5062732;28;20029;-76
2021/10/12 17:52:12;;;;;;;5.97;2.90;;;22.30;71.60;;;;;;5094752;28;20029;-76
2021/10/12 17:55:06;;;;;;;9.23;2.67;;;22.30;72.10;;;;;;5060617;28;20079;-73
2021/10/12 17:57:54;;;;;;;3.40;2.42;;;22.30;72.40;;;;;;5063719;28;20044;-74
2021/10/12 18:00:21;;;;;;;8.18;3.50;;;22.20;73.00;;;;;;5061311;28;20093;-77
2021/10/12 18:02:49;;;;;;;5.65;2.78;;;22.20;73.40;;;;;;5063605;28;20040;-73
2021/10/12 18:05:19;;;;;;;9.25;3.03;;;22.20;73.80;;;;;;5063024;28;20111;-78
2021/10/12 18:07:46;;;;;;;5.70;3.58;;;22.20;73.90;;;;;;5063015;28;20538;-78
2021/10/12 18:10:14;;;;;;;9.73;3.15;;;22.20;73.90;;;;;;5062313;28;20025;-78
2021/10/12 18:12:41;;;;;;;8.30;3.45;;;22.20;74.10;;;;;;5060177;28;20020;-78
2021/10/12 18:15:07;;;;;;;7.75;2.78;;;22.20;74.50;;;;;;5063011;28;20583;-79
2021/10/12 18:17:34;;;;;;;13.90;2.78;;;22.10;74.70;;;;;;5063827;28;20024;-78
2021/10/12 18:20:01;;;;;;;5.22;2.78;;;22.20;74.90;;;;;;5061365;28;20012;-78
2021/10/12 18:22:27;;;;;;;5.38;2.47;;;22.10;75.20;;;;;;5062712;28;20071;-79
2021/10/12 18:24:54;;;;;;;7.25;1.83;;;22.10;75.20;;;;;;5064685;28;20019;-76
2021/10/12 18:27:21;;;;;;;5.18;2.13;;;22.10;75.60;;;;;;5062150;28;20029;-74
2021/10/12 18:29:47;;;;;;;7.03;2.70;;;22.00;75.10;;;;;;5060280;28;20028;-76
2021/10/12 18:32:14;;;;;;;7.22;2.92;;;22.00;75.10;;;;;;5063075;28;20094;-79
2021/10/12 18:34:40;;;;;;;7.82;3.88;;;21.90;75.10;;;;;;5063177;28;20025;-79
2021/10/12 18:37:07;;;;;;;6.13;3.63;;;21.90;75.20;;;;;;5062137;28;20100;-77
2021/10/12 18:39:33;;;;;;;10.45;3.47;;;21.90;75.30;;;;;;5062745;28;20024;-78
2021/10/12 18:42:00;;;;;;;7.10;3.92;;;21.90;75.20;;;;;;5059505;28;20045;-77
2021/10/12 18:44:26;;;;;;;16.00;3.58;;;21.80;75.20;;;;;;5063598;28;20008;-76
2021/10/12 18:46:53;;;;;;;7.85;3.42;;;21.80;76.10;;;;;;5063409;28;20036;-78
2021/10/12 18:49:22;;;;;;;10.57;3.17;;;21.80;75.70;;;;;;5062651;28;20502;-79
2021/10/12 18:51:54;;;;;;;7.00;3.40;;;21.80;75.70;;;;;;5063567;28;20074;-78
2021/10/12 18:54:20;;;;;;;20.33;15.30;;;21.80;75.90;;;;;;5062971;28;20024;-78
2021/10/12 18:57:07;;;;;;;;;;;;;;;;;;;;;
2021/10/12 18:59:41;;;;;;;6.90;3.15;;;21.80;76.20;;;;;;5064552;28;20041;-79
2021/10/12 19:02:51;;;;;;;9.35;3.63;;;21.80;76.20;;;;;;5065580;28;20090;-80
2021/10/12 19:05:19;;;;;;;8.40;3.65;;;21.70;76.10;;;;;;5056635;28;20037;-80
2021/10/12 19:07:55;;;;;;;6.80;3.80;;;21.70;76.20;;;;;;5065217;28;20028;-81
2021/10/12 19:10:46;;;;;;;9.45;3.55;;;21.70;76.50;;;;;;5099434;28;20024;-77
2021/10/12 19:13:20;;;;;;;8.10;2.92;;;21.70;76.60;;;;;;5067943;28;20036;-78
2021/10/12 19:15:57;;;;;;;6.70;3.47;;;21.70;76.90;;;;;;5082120;28;20032;-79
2021/10/12 19:18:28;;;;;;;7.10;2.70;;;21.60;77.20;;;;;;5098946;28;20028;-79
2021/10/12 19:21:07;;;;;;;7.22;2.50;;;21.60;77.40;;;;;;5058159;28;20395;-79
2021/10/12 19:23:37;;;;;;;10.25;2.50;;;21.60;77.70;;;;;;5067261;28;20048;-79
2021/10/12 19:26:05;;;;;;;8.10;3.40;;;21.60;77.70;;;;;;5065238;28;20048;-80
2021/10/12 19:28:38;;;;;;;5.88;2.70;;;21.50;78.00;;;;;;5061224;28;20048;-81
2021/10/12 19:31:10;;;;;;;5.47;2.38;;;21.60;78.10;;;;;;5067638;28;20399;-80
2021/10/12 19:33:36;;;;;;;5.63;2.40;;;21.50;78.10;;;;;;5060825;28;20055;-81
2021/10/12 19:36:05;;;;;;;6.07;2.60;;;21.50;78.10;;;;;;5063939;28;20040;-78
2021/10/12 19:38:32;;;;;;;8.63;2.72;;;21.50;78.20;;;;;;5067118;28;20086;-82
2021/10/12 19:41:03;;;;;;;4.97;2.30;;;21.50;78.50;;;;;;5064124;28;20048;-82
2021/10/12 19:43:33;;;;;;;4.53;2.33;;;21.50;78.60;;;;;;5065486;28;20017;-81
2021/10/12 19:46:00;;;;;;;6.70;2.15;;;21.40;78.70;;;;;;5062535;28;20039;-80
2021/10/12 19:48:27;;;;;;;6.25;2.55;;;21.40;79.00;;;;;;5062278;28;20428;-79